Time;durP1;ratioP1;P1;durP2;ratioP2;P2;SDS_P1;SDS_P2;PMS_P1;PMS_P2;Temp;Humidity;BMP_temperature;BMP_pressure;BME280_temperature;BME280_humidity;BME280_pressure;Samples;Min_cycle;Max_cycle;Signal;HPM_P1;HPM_P2
2023/08/08 00:00:27;;;;;;;1.00;0.90;;;;;;;14.63;100.00;100127.31;1475700;88;21552;-79
2023/08/08 00:02:53;;;;;;;2.17;1.10;;;;;;;14.64;100.00;100124.95;1479942;88;21375;-77
2023/08/08 00:05:19;;;;;;;1.93;1.23;;;;;;;14.62;100.00;100126.48;1467370;88;21582;-79
2023/08/08 00:07:46;;;;;;;3.83;1.10;;;;;;;14.64;100.00;100132.95;1472415;87;21383;-78
2023/08/08 00:10:12;;;;;;;3.37;1.60;;;;;;;14.60;100.00;100131.67;1474351;87;21346;-78
2023/08/08 00:12:38;;;;;;;1.37;1.07;;;;;;;14.62;100.00;100134.98;1468239;88;21589;-79
2023/08/08 00:15:07;;;;;;;3.07;1.20;;;;;;;14.60;100.00;100131.16;1470234;87;22351;-78
2023/08/08 00:17:33;;;;;;;2.40;0.97;;;;;;;14.60;100.00;100132.49;1474292;87;21526;-78
2023/08/08 00:19:59;;;;;;;1.47;0.87;;;;;;;14.60;100.00;100127.67;1471610;88;21361;-78
2023/08/08 00:22:26;;;;;;;2.93;1.10;;;;;;;14.62;100.00;100130.99;1467709;87;21523;-79
2023/08/08 00:24:52;;;;;;;2.33;1.40;;;;;;;14.62;100.00;100132.33;1478852;88;22396;-78
2023/08/08 00:27:18;;;;;;;5.07;1.57;;;;;;;14.63;100.00;100131.31;1474484;87;21575;-78
2023/08/08 00:29:45;;;;;;;1.17;0.87;;;;;;;14.66;100.00;100133.61;1467040;88;21465;-78
2023/08/08 00:32:12;;;;;;;1.77;1.17;;;;;;;14.66;100.00;100130.44;1465158;88;21490;-79
2023/08/08 00:34:39;;;;;;;2.03;0.90;;;;;;;14.70;100.00;100134.88;1463165;88;21592;-79
2023/08/08 00:37:05;;;;;;;5.63;1.20;;;;;;;14.67;100.00;100136.58;1472406;87;22277;-80
2023/08/08 00:39:31;;;;;;;4.03;0.97;;;;;;;14.63;100.00;100137.96;1473260;87;21376;-80
2023/08/08 00:41:57;;;;;;;2.30;0.90;;;;;;;14.62;100.00;100137.14;1477964;87;21632;-79
2023/08/08 00:44:24;;;;;;;1.93;1.20;;;;;;;14.64;100.00;100143.13;1472783;88;21375;-78
2023/08/08 00:46:50;;;;;;;2.07;1.00;;;;;;;14.66;100.00;100134.94;1469025;87;21309;-78
2023/08/08 00:49:16;;;;;;;1.90;1.30;;;;;;;14.68;100.00;100141.43;1474467;88;21441;-80
2023/08/08 00:51:43;;;;;;;2.40;1.33;;;;;;;14.67;100.00;100137.91;1476045;87;21597;-80
2023/08/08 00:54:10;;;;;;;5.37;1.27;;;;;;;14.70;100.00;100141.55;1465826;88;21419;-79
2023/08/08 00:56:36;;;;;;;2.43;1.40;;;;;;;14.70;100.00;100144.72;1396246;88;21433;-79
2023/08/08 00:59:03;;;;;;;3.67;1.20;;;;;;;14.67;100.00;100148.56;1397213;87;21376;-79
2023/08/08 01:06:26;;;;;;;1.70;0.93;;;;;;;14.66;100.00;100162.91;1557863;88;21303;-80
2023/08/08 01:08:57;;;;;;;3.80;1.00;;;;;;;14.68;100.00;100156.08;1397752;87;21325;-78
2023/08/08 01:11:26;;;;;;;1.30;1.10;;;;;;;14.69;100.00;100161.20;1553011;87;21317;-78
2023/08/08 01:13:55;;;;;;;4.77;1.60;;;;;;;14.73;100.00;100164.33;1394098;88;21302;-79
2023/08/08 01:16:21;;;;;;;4.17;1.20;;;;;;;14.74;100.00;100168.67;1395852;87;21318;-78
2023/08/08 01:18:50;;;;;;;1.73;1.33;;;;;;;14.73;100.00;100170.52;1479552;88;21346;-78
2023/08/08 01:21:16;;;;;;;1.20;0.90;;;;;;;14.73;100.00;100161.19;1396624;87;21243;-79
2023/08/08 01:23:55;;;;;;;1.33;1.20;;;;;;;14.73;100.00;100163.85;1396410;87;21445;-78
2023/08/08 01:26:23;;;;;;;3.33;0.90;;;;;;;14.74;100.00;100168.16;1525326;88;22204;-78
2023/08/08 01:28:54;;;;;;;1.30;0.90;;;;;;;14.73;100.00;100173.66;1471898;88;21315;-78
2023/08/08 01:31:21;;;;;;;1.73;0.83;;;;;;;14.69;100.00;100177.19;1548549;88;21213;-79
2023/08/08 01:33:48;;;;;;;2.03;1.40;;;;;;;14.70;100.00;100176.68;1403357;87;21386;-78
2023/08/08 01:36:22;;;;;;;2.80;0.97;;;;;;;14.70;100.00;100176.68;1397735;88;21198;-80
2023/08/08 01:38:51;;;;;;;7.13;1.10;;;;;;;14.69;100.00;100177.70;1556434;87;21354;-78
2023/08/08 01:41:21;;;;;;;1.30;1.20;;;;;;;14.64;100.00;100171.09;1394360;87;21361;-78
2023/08/08 01:43:48;;;;;;;1.30;1.20;;;;;;;14.60;100.00;100173.77;1395997;87;21250;-79
2023/08/08 01:46:15;;;;;;;3.87;1.20;;;;;;;14.55;100.00;100176.65;1396543;87;21369;-79
2023/08/08 01:48:46;;;;;;;1.07;0.93;;;;;;;14.50;100.00;100177.17;1397938;87;21573;-80
2023/08/08 01:51:13;;;;;;;1.67;0.90;;;;;;;14.50;100.00;100177.65;1400433;87;21243;-80
2023/08/08 01:53:39;;;;;;;1.80;1.00;;;;;;;14.45;100.00;100177.70;1550398;88;21335;-80
2023/08/08 01:56:05;;;;;;;1.17;1.00;;;;;;;14.45;100.00;100184.36;1398703;87;21236;-80
2023/08/08 01:58:31;;;;;;;3.43;1.30;;;;;;;14.47;100.00;100183.34;1391559;88;21302;-80
2023/08/08 02:00:58;;;;;;;1.30;1.10;;;;;;;14.46;100.00;100190.50;1382020;90;21286;-81
2023/08/08 02:03:24;;;;;;;1.73;0.87;;;;;;;14.43;100.00;100190.35;1397993;87;22042;-80
2023/08/08 02:05:50;;;;;;;1.80;0.97;;;;;;;14.42;100.00;100188.70;1403689;87;22064;-80
2023/08/08 02:08:18;;;;;;;1.97;0.93;;;;;;;14.40;100.00;100181.39;1513221;87;21346;-80
2023/08/08 02:10:44;;;;;;;3.20;1.33;;;;;;;14.39;100.00;100185.58;1397310;88;22101;-80
2023/08/08 02:13:10;;;;;;;2.40;1.20;;;;;;;14.39;100.00;100188.24;1395987;89;21450;-80
2023/08/08 02:15:36;;;;;;;1.90;1.17;;;;;;;14.36;100.00;100188.59;1397233;87;22123;-80
2023/08/08 02:18:03;;;;;;;1.10;1.00;;;;;;;14.34;100.00;100186.10;1403262;87;22058;-79
2023/08/08 02:20:30;;;;;;;1.30;1.00;;;;;;;14.32;100.00;100184.11;1552835;88;21421;-80
2023/08/08 02:22:56;;;;;;;4.97;1.07;;;;;;;14.29;100.00;100184.47;1550875;88;21163;-79
2023/08/08 02:25:22;;;;;;;3.77;1.83;;;;;;;14.23;100.00;100191.33;1398243;87;21257;-80
2023/08/08 02:27:49;;;;;;;3.73;1.30;;;;;;;14.20;100.00;100198.84;1398624;87;21465;-80
2023/08/08 02:30:15;;;;;;;2.33;1.63;;;;;;;14.17;100.00;100196.54;1399011;88;22094;-79
2023/08/08 02:32:42;;;;;;;1.47;1.10;;;;;;;14.11;100.00;100195.92;1398424;87;22160;-80
2023/08/08 02:35:14;;;;;;;1.57;1.27;;;;;;;14.06;100.00;100200.42;1403928;87;21191;-80
2023/08/08 02:37:40;;;;;;;2.40;1.70;;;;;;;14.02;100.00;100203.63;1491320;88;21456;-80
2023/08/08 02:40:09;;;;;;;1.37;1.10;;;;;;;13.97;100.00;100202.30;1475408;87;21776;-80
2023/08/08 02:42:35;;;;;;;6.53;1.43;;;;;;;13.97;100.00;100200.98;1456971;87;21339;-80
2023/08/08 02:45:12;;;;;;;1.93;1.40;;;;;;;13.97;100.00;100208.95;1475121;87;21537;-80
2023/08/08 02:47:38;;;;;;;1.63;1.30;;;;;;;13.98;100.00;100207.98;1463647;88;22357;-80
2023/08/08 02:50:07;;;;;;;3.63;1.43;;;;;;;14.02;100.00;100208.45;1477397;87;21575;-80
2023/08/08 02:52:33;;;;;;;1.63;1.43;;;;;;;14.03;100.00;100207.43;1473845;87;21537;-80
2023/08/08 02:54:59;;;;;;;1.20;1.10;;;;;;;14.03;100.00;100213.27;1470634;87;21338;-80
2023/08/08 02:57:30;;;;;;;1.63;0.97;;;;;;;13.99;100.00;100217.60;1462984;88;21463;-80
2023/08/08 02:59:56;;;;;;;1.77;1.43;;;;;;;13.95;100.00;100224.77;1467952;87;21456;-79
2023/08/08 03:02:23;;;;;;;2.27;1.30;;;;;;;13.92;100.00;100227.27;1479358;87;22321;-80
2023/08/08 03:04:50;;;;;;;2.00;0.90;;;;;;;13.92;100.00;100227.27;1469844;88;21419;-80
2023/08/08 03:07:16;;;;;;;3.10;1.50;;;;;;;13.92;100.00;100223.28;1469180;87;22498;-80
2023/08/08 03:09:43;;;;;;;1.77;1.23;;;;;;;13.93;100.00;100225.47;1473562;87;21368;-79
2023/08/08 03:12:09;;;;;;;1.33;1.20;;;;;;;13.91;100.00;100224.29;1469060;87;21390;-80
2023/08/08 03:14:35;;;;;;;2.27;1.23;;;;;;;13.88;100.00;100231.30;1478043;88;21346;-79
2023/08/08 03:17:01;;;;;;;2.00;1.03;;;;;;;13.85;100.00;100234.81;1472511;87;21427;-79
2023/08/08 03:19:28;;;;;;;5.43;1.40;;;;;;;13.81;100.00;100240.98;1472176;87;21404;-79
2023/08/08 03:21:54;;;;;;;2.70;1.27;;;;;;;13.77;100.00;100233.00;1474157;88;21398;-79
2023/08/08 03:24:20;;;;;;;3.07;1.53;;;;;;;13.76;100.00;100231.36;1474617;88;21443;-79
2023/08/08 03:26:46;;;;;;;2.13;1.40;;;;;;;13.76;100.00;100232.18;1469596;88;21375;-79
2023/08/08 03:29:12;;;;;;;3.93;1.63;;;;;;;13.75;100.00;100233.19;1474921;87;21367;-80
2023/08/08 03:31:39;;;;;;;3.77;1.20;;;;;;;13.75;100.00;100238.98;1476407;88;22454;-80
2023/08/08 03:34:05;;;;;;;1.83;1.63;;;;;;;13.74;100.00;100241.33;1468611;88;21375;-80
2023/08/08 03:36:31;;;;;;;2.60;1.57;;;;;;;13.71;100.00;100240.34;1473759;88;21463;-80
2023/08/08 03:38:58;;;;;;;4.83;1.40;;;;;;;13.71;100.00;100241.17;1473203;87;22366;-80
2023/08/08 03:41:24;;;;;;;6.67;1.63;;;;;;;13.72;100.00;100239.34;1467028;88;22424;-80
2023/08/08 03:43:50;;;;;;;2.20;1.20;;;;;;;13.73;100.00;100254.31;1472118;88;21434;-79
2023/08/08 03:46:16;;;;;;;1.13;1.03;;;;;;;13.75;100.00;100262.45;1476871;88;21559;-79
2023/08/08 03:48:43;;;;;;;6.60;2.87;;;;;;;13.80;100.00;100265.91;1471609;87;22233;-78
2023/08/08 03:51:09;;;;;;;1.70;1.00;;;;;;;13.85;100.00;100268.06;1472481;87;21361;-79
2023/08/08 03:53:35;;;;;;;5.33;1.70;;;;;;;13.89;100.00;100266.20;1470224;88;22250;-79
2023/08/08 03:56:05;;;;;;;3.77;1.50;;;;;;;13.95;100.00;100272.18;1475846;87;21865;-79
2023/08/08 03:58:31;;;;;;;1.80;1.57;;;;;;;13.97;100.00;100272.81;1464432;87;21497;-79
2023/08/08 04:00:57;;;;;;;6.97;2.77;;;;;;;13.98;100.00;100267.84;1472019;87;21486;-79
2023/08/08 04:03:23;;;;;;;1.43;1.30;;;;;;;13.99;100.00;100273.48;1476648;88;21567;-80
2023/08/08 04:05:50;;;;;;;5.23;1.67;;;;;;;14.01;100.00;100270.63;1472145;88;21323;-79
2023/08/08 04:08:17;;;;;;;1.73;1.20;;;;;;;14.05;100.00;100279.94;1477672;87;22499;-79
2023/08/08 04:10:43;;;;;;;4.10;1.60;;;;;;;14.09;100.00;100278.58;1478886;87;21420;-81
2023/08/08 04:13:10;;;;;;;1.50;1.40;;;;;;;14.15;100.00;100283.20;1481188;87;21516;-80
2023/08/08 04:15:37;;;;;;;2.27;1.70;;;;;;;14.18;100.00;100285.54;1466830;88;21382;-79
2023/08/08 04:18:06;;;;;;;3.00;1.70;;;;;;;14.23;100.00;100274.35;1460963;88;21361;-80
2023/08/08 04:20:31;;;;;;;5.80;1.80;;;;;;;14.24;100.00;100283.98;1471426;87;21602;-79
2023/08/08 04:22:58;;;;;;;1.60;1.50;;;;;;;14.23;100.00;100291.14;1467024;87;21457;-79
2023/08/08 04:25:24;;;;;;;4.83;1.50;;;;;;;14.23;100.00;100283.67;1467774;88;22381;-78
2023/08/08 04:27:50;;;;;;;2.43;2.03;;;;;;;14.26;100.00;100300.62;1475003;87;21323;-79
2023/08/08 04:30:17;;;;;;;2.07;1.67;;;;;;;14.27;100.00;100295.64;1462239;88;21537;-79
2023/08/08 04:32:43;;;;;;;5.93;3.27;;;;;;;14.33;100.00;100304.25;1473927;87;21331;-79
2023/08/08 04:35:09;;;;;;;2.53;1.63;;;;;;;14.36;100.00;100301.24;1468977;87;22254;-79
2023/08/08 04:37:35;;;;;;;2.10;1.50;;;;;;;14.40;100.00;100310.52;1470903;87;21390;-80
2023/08/08 04:40:02;;;;;;;2.30;1.40;;;;;;;14.42;100.00;100300.53;1464814;88;21593;-79
2023/08/08 04:42:28;;;;;;;13.93;3.73;;;;;;;14.50;100.00;100304.14;1471340;87;22358;-80
2023/08/08 04:44:54;;;;;;;2.30;1.50;;;;;;;14.55;100.00;100304.47;1472746;87;21501;-80
2023/08/08 04:47:20;;;;;;;2.70;1.80;;;;;;;14.61;100.00;100312.58;1466692;88;21331;-80
2023/08/08 04:49:47;;;;;;;2.80;2.00;;;;;;;14.70;100.00;100316.02;1451432;88;22962;-80
2023/08/08 04:52:13;;;;;;;7.23;2.00;;;;;;;14.79;100.00;100324.30;1468028;88;22440;-79
2023/08/08 04:54:39;;;;;;;3.63;1.93;;;;;;;14.86;100.00;100315.91;1471140;87;22069;-80
2023/08/08 04:57:06;;;;;;;4.77;2.13;;;;;;;14.95;100.00;100326.52;1479401;88;21360;-79
2023/08/08 04:59:32;;;;;;;4.00;2.10;;;;;;;15.01;100.00;100325.79;1476939;87;21434;-80
2023/08/08 05:01:58;;;;;;;2.13;1.83;;;;;;;15.01;100.00;100328.45;1471878;88;21376;-79
2023/08/08 05:04:24;;;;;;;3.10;1.57;;;;;;;14.96;100.00;100330.82;1475630;87;21353;-80
2023/08/08 05:06:51;;;;;;;2.70;1.30;;;;;;;14.88;100.00;100330.41;1471706;88;22499;-80
2023/08/08 05:09:17;;;;;;;1.63;1.40;;;;;;;14.92;100.00;100339.68;1468061;87;21371;-79
2023/08/08 05:11:43;;;;;;;1.63;1.50;;;;;;;14.98;100.00;100347.47;1462335;88;21374;-80
2023/08/08 05:14:09;;;;;;;5.10;1.60;;;;;;;15.07;100.00;100351.72;1474076;88;21360;-80
2023/08/08 05:16:36;;;;;;;3.37;1.90;;;;;;;15.11;100.00;100355.70;1473785;88;21370;-78
2023/08/08 05:19:02;;;;;;;1.80;1.50;;;;;;;15.16;100.00;100355.98;1478238;87;22083;-79
2023/08/08 05:21:28;;;;;;;5.33;1.70;;;;;;;15.19;100.00;100355.64;1462736;88;21383;-80
2023/08/08 05:23:54;;;;;;;2.40;1.70;;;;;;;15.16;100.00;100361.30;1472750;88;21489;-79
2023/08/08 05:26:21;;;;;;;3.57;1.77;;;;;;;15.17;100.00;100365.66;1470010;87;22329;-79
2023/08/08 05:28:47;;;;;;;2.53;1.63;;;;;;;15.23;100.00;100364.11;1469909;88;21512;-79
2023/08/08 05:31:13;;;;;;;1.80;1.70;;;;;;;15.33;100.00;100372.19;1461423;88;21331;-79
2023/08/08 05:33:39;;;;;;;5.93;2.23;;;;;;;15.37;100.00;100375.83;1471780;88;21308;-79
2023/08/08 05:36:05;;;;;;;2.10;1.90;;;;;;;15.44;100.00;100371.42;1467223;87;21494;-78
2023/08/08 05:38:31;;;;;;;18.67;3.47;;;;;;;15.52;100.00;100371.34;1465736;88;22138;-78
2023/08/08 05:40:57;;;;;;;5.90;1.60;;;;;;;15.63;100.00;100372.24;1467345;87;21892;-78
2023/08/08 05:43:23;;;;;;;6.20;1.70;;;;;;;15.72;100.00;100374.35;1465401;88;21331;-78
2023/08/08 05:45:50;;;;;;;2.90;2.43;;;;;;;15.85;100.00;100378.53;1482108;87;21493;-77
2023/08/08 05:48:16;;;;;;;4.47;2.13;;;;;;;16.04;100.00;100375.02;1468428;88;21612;-78
2023/08/08 05:50:42;;;;;;;6.23;1.70;;;;;;;16.21;100.00;100381.30;1480819;88;21331;-79
2023/08/08 05:53:09;;;;;;;2.50;2.30;;;;;;;16.46;100.00;100378.34;1472154;88;21464;-78
2023/08/08 05:55:35;;;;;;;1.90;1.40;;;;;;;16.71;100.00;100386.83;1471866;87;21589;-80
2023/08/08 05:58:01;;;;;;;5.67;2.17;;;;;;;16.93;100.00;100379.70;1470676;88;21419;-78
2023/08/08 06:00:28;;;;;;;4.45;2.08;;;;;;;17.22;100.00;100372.05;1475140;88;21375;-80
2023/08/08 06:02:54;;;;;;;3.63;1.60;;;;;;;17.46;100.00;100375.33;1465792;88;21309;-80
2023/08/08 06:05:23;;;;;;;2.52;1.40;;;;;;;17.62;100.00;100382.27;1479009;88;22320;-78
2023/08/08 06:07:50;;;;;;;1.62;1.30;;;;;;;17.72;100.00;100389.42;1484501;88;21375;-89
2023/08/08 06:10:16;;;;;;;3.05;1.90;;;;;;;17.74;100.00;100388.72;1476853;87;21365;-83
2023/08/08 06:12:43;;;;;;;4.70;1.40;;;;;;;17.77;100.00;100392.34;1469289;88;21332;-82
2023/08/08 06:15:10;;;;;;;16.30;2.12;;;;;;;17.73;100.00;100389.76;1467379;88;21472;-84
2023/08/08 06:17:36;;;;;;;3.65;1.47;;;;;;;17.63;100.00;100389.26;1477720;87;21293;-83
2023/08/08 06:20:03;;;;;;;1.50;1.12;;;;;;;17.62;100.00;100392.97;1472966;88;21575;-83
2023/08/08 06:22:30;;;;;;;1.27;1.15;;;;;;;17.54;100.00;100397.42;1468181;87;22382;-83
2023/08/08 06:24:56;;;;;;;3.85;1.87;;;;;;;17.54;100.00;100397.42;1472701;88;21435;-83
2023/08/08 06:27:22;;;;;;;3.22;1.75;;;;;;;17.55;100.00;100396.91;1468572;87;21475;-83
2023/08/08 06:29:48;;;;;;;1.75;1.32;;;;;;;17.56;100.00;100407.43;1468010;88;21559;-83
2023/08/08 06:32:14;;;;;;;1.67;1.50;;;;;;;17.59;100.00;100408.38;1470468;87;22551;-81
2023/08/08 06:34:47;;;;;;;5.17;1.62;;;;;;;17.61;100.00;100409.54;1466250;88;21575;-80
2023/08/08 06:37:13;;;;;;;2.55;1.17;;;;;;;17.63;100.00;100416.02;1462876;88;21346;-83
2023/08/08 06:39:41;;;;;;;2.72;1.20;;;;;;;17.60;100.00;100416.71;1472761;87;21523;-84
2023/08/08 06:42:08;;;;;;;1.75;1.60;;;;;;;17.66;100.00;100427.16;1467271;87;21428;-84
2023/08/08 06:44:43;;;;;;;3.55;1.67;;;;;;;17.69;100.00;100427.28;1462442;88;22358;-84
2023/08/08 06:47:09;;;;;;;3.95;1.20;;;;;;;17.68;100.00;100428.31;1472947;87;21324;-84
2023/08/08 06:49:35;;;;;;;2.98;1.50;;;;;;;17.70;100.00;100424.94;1460457;87;21596;-84
2023/08/08 06:52:03;;;;;;;2.00;1.57;;;;;;;17.73;100.00;100429.91;1465515;88;21353;-84
2023/08/08 06:54:29;;;;;;;5.12;1.30;;;;;;;17.71;100.00;100433.28;1474206;88;21413;-84
2023/08/08 06:56:56;;;;;;;2.22;1.98;;;;;;;17.73;100.00;100436.59;1471134;87;21419;-84
2023/08/08 06:59:24;;;;;;;12.05;1.77;;;;;;;17.77;100.00;100429.30;1474201;87;21419;-83
2023/08/08 07:01:50;;;;;;;4.90;1.37;;;;;;;17.88;100.00;100432.00;1463826;88;22328;-82
2023/08/08 07:04:20;;;;;;;1.98;1.10;;;;;;;18.00;100.00;100437.12;1468203;88;21383;-84
2023/08/08 07:06:45;;;;;;;3.58;1.35;;;;;;;18.11;100.00;100440.29;1393320;87;21674;-84
2023/08/08 07:09:29;;;;;;;1.42;1.32;;;;;;;18.15;100.00;100433.50;1499003;88;22470;-84
2023/08/08 07:11:55;;;;;;;6.08;1.42;;;;;;;18.22;100.00;100439.22;1465991;88;21361;-84
2023/08/08 07:14:21;;;;;;;3.12;1.40;;;;;;;18.30;100.00;100444.94;1475486;88;22299;-84
2023/08/08 07:16:48;;;;;;;1.87;1.30;;;;;;;18.34;100.00;100438.15;1462349;88;21560;-83
2023/08/08 07:19:15;;;;;;;1.42;1.32;;;;;;;18.38;100.00;100445.27;1475176;88;21361;-83
2023/08/08 07:21:41;;;;;;;7.33;1.37;;;;;;;18.36;100.00;100448.16;1479560;87;22238;-83
2023/08/08 07:24:09;;;;;;;2.77;1.45;;;;;;;18.37;100.00;100449.81;1473919;87;22210;-84
2023/08/08 07:26:36;;;;;;;6.03;1.57;;;;;;;18.43;100.00;100444.17;1475346;87;22041;-84
2023/08/08 07:29:02;;;;;;;2.17;1.40;;;;;;;18.49;100.00;100445.53;1463574;88;21449;-83
2023/08/08 07:31:28;;;;;;;3.52;1.17;;;;;;;18.59;100.00;100447.05;1475628;88;22351;-84
2023/08/08 07:33:55;;;;;;;4.28;1.52;;;;;;;18.68;100.00;100452.54;1462422;87;22270;-85
2023/08/08 07:36:21;;;;;;;2.75;1.60;;;;;;;18.72;100.00;100456.46;1474478;87;21435;-85
2023/08/08 07:38:47;;;;;;;19.45;2.72;;;;;;;18.78;100.00;100451.66;1475299;88;21316;-84
2023/08/08 07:41:13;;;;;;;4.17;1.07;;;;;;;18.85;100.00;100463.26;1477209;87;21338;-82
2023/08/08 07:43:42;;;;;;;1.95;1.15;;;;;;;18.91;100.00;100468.33;1464320;88;21589;-83
2023/08/08 07:46:08;;;;;;;6.80;1.10;;;;;;;18.93;100.00;100456.38;1470491;87;22240;-82
2023/08/08 07:48:35;;;;;;;10.08;1.30;;;;;;;18.99;100.00;100454.75;1470830;87;21570;-82
2023/08/08 07:51:01;;;;;;;1.57;1.32;;;;;;;19.02;100.00;100452.15;1467894;87;21354;-82
2023/08/08 07:53:28;;;;;;;1.87;1.10;;;;;;;19.24;100.00;100452.30;1477655;87;22491;-83
2023/08/08 07:55:54;;;;;;;1.17;1.10;;;;;;;19.31;100.00;100453.16;1471679;88;22270;-83
2023/08/08 07:58:23;;;;;;;1.20;0.80;;;;;;;19.37;100.00;100452.34;1465761;88;21398;-78
2023/08/08 08:00:48;;;;;;;3.30;1.00;;;;;;;19.59;100.00;100452.13;1475810;88;21426;-81
2023/08/08 08:03:15;;;;;;;2.42;1.00;;;;;;;19.65;100.00;100452.71;1461158;88;21537;-81
2023/08/08 08:05:41;;;;;;;3.77;1.10;;;;;;;19.76;100.00;100457.43;1476174;87;21598;-84
2023/08/08 08:08:07;;;;;;;3.77;1.55;;;;;;;19.65;100.00;100446.00;1470893;87;21485;-84
2023/08/08 08:10:34;;;;;;;0.65;0.60;;;;;;;19.58;100.00;100446.47;1460782;88;21441;-83
2023/08/08 08:13:00;;;;;;;2.05;1.00;;;;;;;19.61;100.00;100452.77;1465758;88;21397;-84
2023/08/08 08:15:26;;;;;;;1.47;0.98;;;;;;;19.61;100.00;100458.13;1473046;88;21389;-84
2023/08/08 08:17:53;;;;;;;2.15;0.95;;;;;;;19.62;100.00;100455.75;1444783;88;21638;-84
2023/08/08 08:20:19;;;;;;;8.68;1.00;;;;;;;19.63;100.00;100448.55;1479297;87;22476;-83
2023/08/08 08:22:45;;;;;;;1.07;0.82;;;;;;;19.63;100.00;100449.37;1469324;87;21405;-83
2023/08/08 08:25:12;;;;;;;1.12;0.90;;;;;;;19.87;100.00;100448.45;1471659;87;21553;-84
2023/08/08 08:27:39;;;;;;;1.30;0.90;;;;;;;19.93;100.00;100452.98;1436359;88;22242;-84
2023/08/08 08:30:08;;;;;;;1.07;0.85;;;;;;;20.08;100.00;100449.55;1473416;87;21552;-84
2023/08/08 08:32:36;;;;;;;2.75;0.88;;;;;;;20.17;100.00;100456.38;1466849;88;22270;-84
2023/08/08 08:35:06;;;;;;;2.20;0.98;;;;;;;20.14;100.00;100446.55;1471953;87;21427;-84
2023/08/08 08:37:33;;;;;;;;;;;;;;;20.04;100.00;100457.73;1472396;88;21375;-84
2023/08/08 08:39:59;;;;;;;2.55;0.90;;;;;;;19.97;100.00;100451.55;1469255;88;20297;-84
2023/08/08 08:42:28;;;;;;;1.60;0.80;;;;;;;19.98;100.00;100459.39;1466583;87;21382;-83
2023/08/08 08:44:59;;;;;;;5.67;0.62;;;;;;;19.98;100.00;100459.39;1475346;88;21530;-83
2023/08/08 08:47:28;;;;;;;1.52;1.10;;;;;;;20.05;100.00;100459.38;1476086;88;21331;-83
2023/08/08 08:49:56;;;;;;;1.70;0.88;;;;;;;20.14;100.00;100456.80;1468662;88;21485;-84
2023/08/08 08:52:23;;;;;;;2.35;0.60;;;;;;;20.21;100.00;100460.28;1469393;88;21397;-83
2023/08/08 08:54:54;;;;;;;0.95;0.70;;;;;;;20.23;100.00;100462.25;1464609;88;21512;-83
2023/08/08 08:57:26;;;;;;;1.07;0.60;;;;;;;20.37;100.00;100457.67;1480020;87;21479;-82
2023/08/08 08:59:52;;;;;;;2.97;0.77;;;;;;;20.59;100.00;100465.48;1480311;88;22366;-84
2023/08/08 09:02:19;;;;;;;2.77;0.80;;;;;;;20.84;100.00;100455.66;1471624;87;21360;-84
2023/08/08 09:04:46;;;;;;;0.70;0.62;;;;;;;21.00;100.00;100453.50;1475909;87;22336;-84
2023/08/08 09:07:14;;;;;;;0.95;0.75;;;;;;;21.23;100.00;100454.29;1463420;88;21390;-84
2023/08/08 09:09:45;;;;;;;1.27;0.90;;;;;;;21.47;100.00;100450.86;1477019;88;21519;-83
2023/08/08 09:12:16;;;;;;;1.45;0.90;;;;;;;21.55;98.54;100449.24;1471178;87;21316;-83
2023/08/08 09:14:41;;;;;;;1.47;0.75;;;;;;;21.91;98.64;100446.86;1471294;87;21412;-84
2023/08/08 09:17:13;;;;;;;2.05;1.27;;;;;;;22.09;98.06;100445.00;1477185;87;21353;-83
2023/08/08 09:19:46;;;;;;;1.42;0.80;;;;;;;22.42;97.33;100438.47;1468333;87;21272;-83
2023/08/08 09:22:14;;;;;;;1.47;1.05;;;;;;;22.71;94.50;100441.45;1476228;88;22082;-83
2023/08/08 09:24:42;;;;;;;1.62;1.02;;;;;;;22.73;94.80;100439.35;1476870;88;21575;-84
2023/08/08 09:27:09;;;;;;;3.12;1.20;;;;;;;22.79;94.32;100443.84;1468373;87;21317;-84
2023/08/08 09:29:36;;;;;;;1.95;0.82;;;;;;;22.74;94.12;100440.98;1471501;87;21516;-83
2023/08/08 09:32:06;;;;;;;3.55;0.95;;;;;;;22.73;93.47;100444.75;1470234;87;21280;-83
2023/08/08 09:34:32;;;;;;;1.20;0.90;;;;;;;22.68;93.17;100435.16;1470473;88;21457;-84
2023/08/08 09:37:00;;;;;;;0.80;0.80;;;;;;;22.51;93.29;100431.72;1473790;88;21530;-83
2023/08/08 09:39:28;;;;;;;2.22;0.90;;;;;;;22.50;94.64;100438.17;1467932;87;22439;-84
2023/08/08 09:41:56;;;;;;;1.60;0.80;;;;;;;22.56;92.05;100434.25;1468693;87;21391;-84
2023/08/08 09:44:29;;;;;;;1.77;0.80;;;;;;;22.85;92.98;100436.70;1462335;88;21353;-84
2023/08/08 09:46:56;;;;;;;1.72;1.10;;;;;;;23.00;92.59;100436.32;1466188;88;22211;-85
2023/08/08 09:49:23;;;;;;;1.85;0.80;;;;;;;23.22;92.40;100429.36;1472124;87;21673;-86
2023/08/08 09:51:52;;;;;;;2.22;0.70;;;;;;;23.45;89.00;100430.44;1471444;88;22470;-84
2023/08/08 09:54:19;;;;;;;3.85;0.93;;;;;;;23.64;90.17;100427.94;1473719;88;21588;-85
2023/08/08 09:56:47;;;;;;;4.55;1.00;;;;;;;23.72;89.26;100428.98;1476189;88;21404;-83
2023/08/08 09:59:15;;;;;;;2.08;1.12;;;;;;;23.71;87.88;100435.45;1466073;87;21339;-84
2023/08/08 10:01:42;;;;;;;1.90;0.60;;;;;;;23.71;88.11;100430.05;1475106;87;22492;-84
2023/08/08 10:04:10;;;;;;;2.08;0.90;;;;;;;23.63;88.75;100435.77;1474287;87;21330;-83
2023/08/08 10:06:36;;;;;;;9.30;0.98;;;;;;;23.75;88.05;100436.62;1471213;87;21523;-84
2023/08/08 10:09:03;;;;;;;5.22;0.80;;;;;;;23.69;88.36;100432.12;1471138;87;22462;-84
2023/08/08 10:11:32;;;;;;;3.80;0.80;;;;;;;23.55;89.03;100438.80;1472399;88;21426;-83
2023/08/08 10:14:00;;;;;;;0.70;0.65;;;;;;;23.69;88.80;100438.88;1467107;88;21552;-82
2023/08/08 10:16:26;;;;;;;7.25;0.60;;;;;;;23.62;87.13;100434.09;1476430;87;21398;-84
2023/08/08 10:19:01;;;;;;;3.50;1.00;;;;;;;23.48;87.40;100433.52;1464001;88;21383;-83
2023/08/08 10:21:28;;;;;;;1.62;0.85;;;;;;;23.23;86.77;100441.79;1470506;88;21627;-83
2023/08/08 10:24:11;;;;;;;0.82;0.65;;;;;;;22.95;87.75;100435.11;1473876;88;22216;-84
2023/08/08 10:26:53;;;;;;;1.25;0.80;;;;;;;22.80;87.93;100427.94;1472431;88;21700;-83
2023/08/08 10:29:20;;;;;;;6.37;0.82;;;;;;;22.59;87.61;100427.09;1472163;88;21549;-84
2023/08/08 10:31:59;;;;;;;0.98;0.90;;;;;;;22.52;89.36;100428.49;1481322;87;21390;-83
2023/08/08 10:34:42;;;;;;;0.93;0.78;;;;;;;22.53;89.18;100422.89;1473317;88;21375;-83
2023/08/08 10:37:15;;;;;;;1.45;1.00;;;;;;;22.36;88.51;100423.20;1472081;88;21493;-84
2023/08/08 10:39:58;;;;;;;3.02;0.88;;;;;;;22.32;89.91;100427.91;1468315;88;22380;-83
2023/08/08 10:42:27;;;;;;;0.70;0.60;;;;;;;22.34;89.89;100424.47;1469858;88;22342;-84
2023/08/08 10:44:56;;;;;;;1.95;0.78;;;;;;;22.42;89.91;100427.69;1481199;87;21317;-85
2023/08/08 10:47:36;;;;;;;3.13;0.83;;;;;;;22.73;89.79;100424.52;1470570;87;21479;-84
2023/08/08 10:50:12;;;;;;;1.20;0.62;;;;;;;23.11;89.43;100422.05;1476877;87;21546;-82
2023/08/08 10:52:53;;;;;;;1.92;0.85;;;;;;;23.09;88.13;100412.81;1399787;88;21990;-82
2023/08/08 10:55:23;;;;;;;2.55;0.80;;;;;;;22.99;88.49;100409.86;1398165;88;21308;-83
2023/08/08 10:58:14;;;;;;;1.37;0.68;;;;;;;22.96;88.94;100407.63;1400253;87;21257;-84
2023/08/08 11:00:40;;;;;;;1.57;0.70;;;;;;;23.15;89.10;100411.89;1402865;88;21531;-84
2023/08/08 11:03:08;;;;;;;2.12;0.72;;;;;;;23.23;88.54;100413.97;1396114;87;21317;-83
2023/08/08 11:05:36;;;;;;;2.83;0.72;;;;;;;23.30;88.90;100415.50;1401435;88;22315;-84
2023/08/08 11:08:05;;;;;;;2.45;0.80;;;;;;;23.38;88.39;100401.66;1395843;87;21309;-83
2023/08/08 11:10:41;;;;;;;2.67;0.72;;;;;;;23.40;88.94;100403.61;1394586;87;21309;-84
2023/08/08 11:13:08;;;;;;;1.45;0.90;;;;;;;23.46;88.77;100391.59;1557041;87;22050;-84
2023/08/08 11:15:36;;;;;;;2.40;0.80;;;;;;;23.30;87.49;100403.34;1397482;88;21206;-84
2023/08/08 11:18:03;;;;;;;0.80;0.70;;;;;;;23.13;86.76;100395.62;1401926;87;21346;-84
2023/08/08 11:20:32;;;;;;;0.90;0.80;;;;;;;22.93;87.61;100404.83;1406722;88;21361;-84
2023/08/08 11:23:00;;;;;;;3.25;0.88;;;;;;;22.77;88.00;100402.77;1472370;87;21412;-84
2023/08/08 11:25:29;;;;;;;1.05;0.65;;;;;;;22.83;89.19;100401.02;1470606;87;21553;-84